Harbor Heights, New York
Current Conditions -  °F | °C
As of 2:53 AM on Friday 21 Nov 2014 (Local Time) from KFRG Reporting Station
Clear Clear  
Wind Chill: 21°   Ceiling: Unl
Heat Index: 30°   Visibility: 10mi
Dew Point:   Wind: 10mph
Humidity: 38%   Direction: 300°WNW
Pressure: 30.06"   Gusts: 20mph
Location:  40.8966°N, 73.4362°W
Report Text: KFRG 210753Z AUTO 30009G17KT 10SM CLR M01/M14 A3006 RMK AO2 SLP181 T10111139
Loading
Personal Weather Stations






























Interactive Weather Map New forecast layout! Learn more

10-Day Weather Forecast

Advertisements
Track Severe Weather on mobile